Time;durP1;ratioP1;P1;durP2;ratioP2;P2;SDS_P1;SDS_P2;PMS_P1;PMS_P2;Temp;Humidity;BMP_temperature;BMP_pressure;BME280_temperature;BME280_humidity;BME280_pressure;Samples;Min_cycle;Max_cycle;Signal;HPM_P1;HPM_P2
2022/10/29 00:01:24;;;;;;;;;;;;;;;;;;5071016;28;20355;-53
2022/10/29 00:03:49;;;;;;;;;;;;;;;;;;5071249;28;19904;-52
2022/10/29 00:06:15;;;;;;;;;;;;;;;;;;5070966;28;19908;-52
2022/10/29 05:13:17;;;;;;;;;;;;;;;;;;5071099;28;20275;-50
2022/10/29 05:15:43;;;;;;;;;;;;;;;;;;5072825;28;19912;-52
2022/10/29 05:18:09;;;;;;;;;;;;;;;;;;5071466;28;19916;-52
2022/10/29 05:20:35;;;;;;;;;;;;;;;;;;5071518;28;19909;-53
2022/10/29 05:23:01;;;;;;;;;;;;;;;;;;5069942;28;19908;-53
2022/10/29 05:25:27;;;;;;;;;;;;;;;;;;5086269;28;19994;-52
2022/10/29 05:27:53;;;;;;;;;;;;;;;;;;5089441;28;19904;-53
2022/10/29 05:30:19;;;;;;;;;;;;;;;;;;5088542;28;19911;-53
2022/10/29 05:32:45;;;;;;;;;;;;;;;;;;5078593;28;19916;-51
2022/10/29 05:35:11;;;;;;;3.55;2.42;;;;;;;;;;5080744;28;20506;-51
2022/10/29 05:37:37;;;;;;;3.30;2.10;;;;;;;;;;5077828;28;20102;-51
2022/10/29 05:40:03;;;;;;;3.13;2.35;;;;;;;;;;5089294;28;20526;-51
2022/10/29 05:42:29;;;;;;;3.17;2.13;;;;;;;;;;5087527;28;20157;-49
2022/10/29 05:44:55;;;;;;;2.50;1.90;;;;;;;;;;5107583;28;20440;-52
2022/10/29 05:47:21;;;;;;;3.10;2.10;;;;;;;;;;5073096;28;20480;-53
2022/10/29 05:49:47;;;;;;;5.20;1.88;;;;;;;;;;5079306;28;20036;-51
2022/10/29 05:52:13;;;;;;;2.88;1.73;;;;;;;;;;5077276;28;20043;-52
2022/10/29 05:54:39;;;;;;;3.38;1.90;;;;;;;;;;5091379;28;20099;-50
2022/10/29 05:57:05;;;;;;;6.15;2.33;;;;;;;;;;5089067;28;20086;-51
2022/10/29 05:59:31;;;;;;;3.97;1.90;;;;;;;;;;5089487;28;20032;-52
2022/10/29 06:01:57;;;;;;;3.65;1.88;;;;;;;;;;5083795;28;20032;-51
2022/10/29 06:04:23;;;;;;;3.13;2.08;;;;;;;;;;5088619;28;20028;-53
2022/10/29 06:06:49;;;;;;;4.00;2.30;;;;;;;;;;5110112;28;20036;-53
2022/10/29 06:09:15;;;;;;;3.28;2.25;;;;;;;;;;5093137;28;20042;-52
2022/10/29 06:11:41;;;;;;;3.15;1.60;;;;;;;;;;5093375;28;20082;-51
2022/10/29 06:14:07;;;;;;;2.75;1.80;;;;;;;;;;5088490;28;20499;-50
2022/10/29 06:16:33;;;;;;;4.13;2.22;;;;;;;;;;5088673;28;20499;-52
2022/10/29 06:18:59;;;;;;;2.90;1.70;;;;;;;;;;5091614;28;20048;-53
2022/10/29 06:21:25;;;;;;;3.00;1.80;;;;;;;;;;5091579;28;20039;-49
2022/10/29 06:23:53;;;;;;;2.58;1.73;;;;;;;;;;5093223;28;20122;-51
2022/10/29 06:26:19;;;;;;;4.35;2.35;;;;;;;;;;5082438;28;20036;-50
2022/10/29 06:28:45;;;;;;;3.00;1.77;;;;;;;;;;5075734;28;20619;-52
2022/10/29 06:31:11;;;;;;;3.95;1.98;;;;;;;;;;5075477;28;20463;-52
2022/10/29 06:33:37;;;;;;;2.80;1.88;;;;;;;;;;5091375;28;20082;-53
2022/10/29 06:36:03;;;;;;;2.13;1.58;;;;;;;;;;5092506;28;20028;-52
2022/10/29 06:38:29;;;;;;;2.63;1.80;;;;;;;;;;5092631;28;20031;-52
2022/10/29 06:40:55;;;;;;;2.83;1.73;;;;;;;;;;5073918;28;20082;-53
2022/10/29 06:43:21;;;;;;;3.97;2.08;;;;;;;;;;5072480;28;20025;-52
2022/10/29 06:45:48;;;;;;;3.28;1.50;;;;;;;;;;5072251;28;20028;-51
2022/10/29 06:48:15;;;;;;;3.90;1.83;;;;;;;;;;5075718;28;20047;-50
2022/10/29 06:50:41;;;;;;;3.83;1.52;;;;;;;;;;5086989;28;20094;-51
2022/10/29 06:53:09;;;;;;;3.20;1.90;;;;;;;;;;5092309;28;20035;-53
2022/10/29 06:55:35;;;;;;;2.15;1.60;;;;;;;;;;5088806;28;20035;-52
2022/10/29 06:58:01;;;;;;;3.28;1.67;;;;;;;;;;5083420;28;20020;-51
2022/10/29 07:00:28;;;;;;;2.45;1.63;;;;;;;;;;5102887;28;20028;-52
2022/10/29 07:02:54;;;;;;;3.05;1.67;;;;;;;;;;5089861;28;20028;-52
2022/10/29 07:05:20;;;;;;;2.50;1.83;;;;;;;;;;5092128;28;20043;-52
2022/10/29 07:07:46;;;;;;;;;;;;;;;;;;5092562;28;20036;-52
2022/10/29 07:10:12;;;;;;;;;;;;;;;;;;5092422;28;19903;-53
2022/10/29 07:12:38;;;;;;;;;;;;;;;;;;5080131;28;20367;-53
2022/10/29 07:15:04;;;;;;;;;;;;;;;;;;5082969;28;19919;-52
2022/10/29 07:17:30;;;;;;;;;;;;;;;;;;5078859;28;20379;-53
2022/10/29 07:19:56;;;;;;;;;;;;;;;;;;5069100;28;19912;-51
2022/10/29 07:22:21;;;;;;;;;;;;;;;;;;5069385;28;20390;-51
2022/10/29 07:24:47;;;;;;;;;;;;;;;;;;5070438;28;19923;-49
2022/10/29 07:27:14;;;;;;;;;;;;;;;;;;5068689;28;20475;-51
2022/10/29 07:29:40;;;;;;;;;;;;;;;;;;5068723;28;19959;-51
2022/10/29 07:32:06;;;;;;;;;;;;;;;;;;5068916;28;19948;-51
2022/10/29 07:34:32;;;;;;;;;;;;;;;;;;5068532;28;19908;-53
2022/10/29 07:36:58;;;;;;;;;;;;;;;;;;5068909;28;19911;-51
2022/10/29 07:39:24;;;;;;;;;;;;;;;;;;5070482;28;19964;-52
2022/10/29 07:41:50;;;;;;;;;;;;;;;;;;5089053;28;19911;-52
2022/10/29 07:44:15;;;;;;;;;;;;;;;;;;5089554;28;20009;-51
2022/10/29 07:46:42;;;;;;;;;;;;;;;;;;5075613;28;20023;-52
2022/10/29 07:49:09;;;;;;;;;;;;;;;;;;5067624;28;19909;-53
2022/10/29 07:51:35;;;;;;;2.55;1.77;;;;;;;;;;5067097;28;20409;-53
2022/10/29 07:54:01;;;;;;;3.60;1.80;;;;;;;;;;5067797;28;20032;-49
2022/10/29 07:56:27;;;;;;;2.17;1.40;;;;;;;;;;5067868;28;20526;-51
2022/10/29 07:58:53;;;;;;;3.03;1.88;;;;;;;;;;5067938;28;20056;-51
2022/10/29 08:01:19;;;;;;;2.70;1.60;;;;;;;;;;5068524;28;20110;-52
2022/10/29 08:03:45;;;;;;;3.33;1.65;;;;;;;;;;5079260;28;20522;-52
2022/10/29 08:06:12;;;;;;;2.45;1.48;;;;;;;;;;5087985;28;20051;-52
2022/10/29 08:08:39;;;;;;;3.10;1.40;;;;;;;;;;5088092;28;20032;-51
2022/10/29 08:11:05;;;;;;;1.33;1.10;;;;;;;;;;5088289;28;20028;-52
2022/10/29 08:13:32;;;;;;;2.53;1.40;;;;;;;;;;5087829;28;20032;-51
2022/10/29 08:15:58;;;;;;;1.20;1.10;;;;;;;;;;5087745;28;20471;-53
2022/10/29 08:18:24;;;;;;;1.13;1.00;;;;;;;;;;5087776;28;20031;-52
2022/10/29 08:20:50;;;;;;;0.88;0.80;;;;;;;;;;5087880;28;20039;-52
2022/10/29 08:23:16;;;;;;;1.35;1.13;;;;;;;;;;5088487;28;20283;-50
2022/10/29 08:25:43;;;;;;;1.23;1.10;;;;;;;;;;5087858;28;20059;-52
2022/10/29 08:28:13;;;;;;;1.05;0.90;;;;;;;;;;5087105;28;20501;-51
2022/10/29 08:30:40;;;;;;;1.35;1.10;;;;;;;;;;5087688;28;20028;-52
2022/10/29 08:33:06;;;;;;;1.50;1.15;;;;;;;;;;5087408;28;20036;-52
2022/10/29 08:35:32;;;;;;;1.15;0.80;;;;;;;;;;5087478;28;20027;-53
2022/10/29 08:37:59;;;;;;;2.25;1.30;;;;;;;;;;5087534;28;20024;-53
2022/10/29 08:40:25;;;;;;;;;;;;;;;;;;5087726;28;20020;-51
2022/10/29 08:42:50;;;;;;;;;;;;;;;;;;5087846;28;19904;-52
2022/10/29 08:45:16;;;;;;;;;;;;;;;;;;5088463;28;19922;-53
2022/10/29 08:47:42;;;;;;;;;;;;;;;;;;5087670;28;20082;-52
2022/10/29 08:50:08;;;;;;;;;;;;;;;;;;5079177;28;20395;-52
2022/10/29 08:52:34;;;;;;;;;;;;;;;;;;5066368;28;19908;-54
2022/10/29 08:55:00;;;;;;;;;;;;;;;;;;5067068;28;20421;-51
2022/10/29 08:57:28;;;;;;;;;;;;;;;;;;5067127;28;19998;-52
2022/10/29 08:59:55;;;;;;;;;;;;;;;;;;5067385;28;20346;-52
2022/10/29 09:02:21;;;;;;;;;;;;;;;;;;5067170;28;19954;-52
2022/10/29 09:04:46;;;;;;;;;;;;;;;;;;5067987;28;20352;-53
2022/10/29 09:07:12;;;;;;;;;;;;;;;;;;5067089;28;19904;-52
2022/10/29 09:09:39;;;;;;;;;;;;;;;;;;5084475;28;20434;-52
2022/10/29 09:12:05;;;;;;;;;;;;;;;;;;5067630;28;19905;-52
2022/10/29 09:14:32;;;;;;;;;;;;;;;;;;5067490;28;20224;-52
2022/10/29 09:16:58;;;;;;;;;;;;;;;;;;5074580;28;19904;-53
2022/10/29 09:19:24;;;;;;;;;;;;;;;;;;5087151;28;19958;-51
2022/10/29 09:21:51;;;;;;;;;;;;;;;;;;5083147;28;20298;-50
2022/10/29 09:24:17;;;;;;;;;;;;;;;;;;5101546;28;19912;-51
2022/10/29 09:26:43;;;;;;;;;;;;;;;;;;5107322;28;19903;-52
2022/10/29 09:29:08;;;;;;;;;;;;;;;;;;5107477;28;19904;-52
2022/10/29 09:31:34;;;;;;;;;;;;;;;;;;5107525;28;19914;-51
2022/10/29 09:34:02;;;;;;;;;;;;;;;;;;5107917;28;19915;-51
2022/10/29 09:36:29;;;;;;;0.70;0.70;;;;;;;;;;5105998;28;20684;-49
2022/10/29 09:39:03;;;;;;;0.70;0.70;;;;;;;;;;5106695;28;20521;-51
2022/10/29 09:41:30;;;;;;;;;;;;;;;;;;5110690;28;20027;-53
2022/10/29 09:44:03;;;;;;;1.27;0.60;;;;;;;;;;5110936;28;19907;-52
2022/10/29 09:46:41;;;;;;;2.05;0.90;;;;;;;;;;5111739;28;20429;-50
2022/10/29 09:49:19;;;;;;;1.38;0.75;;;;;;;;;;5089862;28;20095;-50
2022/10/29 09:51:45;;;;;;;1.23;1.10;;;;;;;;;;5076229;28;20029;-52
2022/10/29 09:54:11;;;;;;;3.22;1.00;;;;;;;;;;5069425;28;20044;-50
2022/10/29 09:56:41;;;;;;;1.33;0.85;;;;;;;;;;5074170;28;20175;-49
2022/10/29 09:59:26;;;;;;;0.82;0.80;;;;;;;;;;5082286;28;20036;-51
2022/10/29 10:01:52;;;;;;;1.45;1.10;;;;;;;;;;5074513;28;20074;-53
2022/10/29 10:04:23;;;;;;;4.47;1.30;;;;;;;;;;5082466;28;20032;-51
2022/10/29 10:07:09;;;;;;;2.67;1.33;;;;;;;;;;5080443;28;20036;-53
2022/10/29 10:10:01;;;;;;;2.47;1.50;;;;;;;;;;5082179;28;20036;-49
2022/10/29 10:12:28;;;;;;;2.85;1.30;;;;;;;;;;5071858;28;20075;-53
2022/10/29 10:15:05;;;;;;;1.13;1.02;;;;;;;;;;5073575;28;20074;-50
2022/10/29 10:17:50;;;;;;;2.95;1.83;;;;;;;;;;5084427;28;20020;-52
2022/10/29 10:20:48;;;;;;;4.15;1.60;;;;;;;;;;5090422;28;20118;-51
2022/10/29 10:23:22;;;;;;;1.70;1.40;;;;;;;;;;5015764;28;20102;-50
2022/10/29 10:25:48;;;;;;;2.03;1.40;;;;;;;;;;5072555;28;20411;-53
2022/10/29 10:28:25;;;;;;;2.15;1.63;;;;;;;;;;5074950;28;20281;-52
2022/10/29 10:31:03;;;;;;;1.58;1.38;;;;;;;;;;5085548;28;20024;-53
2022/10/29 10:33:30;;;;;;;1.85;1.35;;;;;;;;;;5089196;28;20035;-52
2022/10/29 10:36:00;;;;;;;2.45;1.63;;;;;;;;;;5070848;28;20620;-53
2022/10/29 10:38:26;;;;;;;2.90;1.80;;;;;;;;;;5071581;28;20028;-52
2022/10/29 10:40:56;;;;;;;2.15;1.40;;;;;;;;;;5083032;28;20028;-53
2022/10/29 10:43:24;;;;;;;1.45;1.33;;;;;;;;;;5085997;28;20036;-53
2022/10/29 10:45:56;;;;;;;2.42;1.20;;;;;;;;;;5080157;28;20028;-52
2022/10/29 10:48:24;;;;;;;1.20;1.00;;;;;;;;;;5076097;28;20552;-53
2022/10/29 10:50:50;;;;;;;1.48;1.08;;;;;;;;;;5080010;28;20052;-52
2022/10/29 10:53:18;;;;;;;2.92;1.60;;;;;;;;;;5080268;28;20028;-54
2022/10/29 10:55:50;;;;;;;2.05;1.30;;;;;;;;;;5070206;28;20028;-53
2022/10/29 10:58:19;;;;;;;3.15;1.70;;;;;;;;;;5079128;28;20042;-51
2022/10/29 11:01:00;;;;;;;3.00;1.60;;;;;;;;;;5109099;28;20487;-52
2022/10/29 11:03:32;;;;;;;2.30;1.80;;;;;;;;;;5096629;28;20036;-50
2022/10/29 11:06:07;;;;;;;6.43;2.42;;;;;;;;;;5056705;28;20518;-55
2022/10/29 11:08:36;;;;;;;3.95;2.50;;;;;;;;;;5076586;28;20078;-53
2022/10/29 11:11:23;;;;;;;4.47;2.50;;;;;;;;;;5071272;28;20030;-49
2022/10/29 11:13:50;;;;;;;5.80;2.20;;;;;;;;;;5031593;28;20166;-52
2022/10/29 11:16:18;;;;;;;2.58;1.80;;;;;;;;;;5054792;28;20113;-53
2022/10/29 11:19:03;;;;;;;4.60;2.95;;;;;;;;;;5082503;28;20036;-52
2022/10/29 11:21:36;;;;;;;3.53;2.00;;;;;;;;;;5084710;28;20596;-49
2022/10/29 11:24:25;;;;;;;2.67;1.90;;;;;;;;;;5083048;28;20028;-53
2022/10/29 11:26:54;;;;;;;3.08;1.92;;;;;;;;;;5067278;28;20047;-52
2022/10/29 11:29:34;;;;;;;4.03;2.15;;;;;;;;;;5077894;28;20450;-53
2022/10/29 11:32:06;;;;;;;2.55;1.95;;;;;;;;;;5076627;28;20379;-52
2022/10/29 11:34:51;;;;;;;3.17;1.70;;;;;;;;;;5074211;28;20028;-51
2022/10/29 11:37:38;;;;;;;2.28;1.67;;;;;;;;;;5081446;28;20028;-52
2022/10/29 11:40:10;;;;;;;2.20;1.50;;;;;;;;;;5073154;28;20028;-53
2022/10/29 11:42:38;;;;;;;2.20;1.70;;;;;;;;;;5083269;28;20392;-53
2022/10/29 11:45:04;;;;;;;3.17;1.80;;;;;;;;;;5082512;28;20476;-52
2022/10/29 11:47:33;;;;;;;5.90;2.20;;;;;;;;;;5079811;28;20502;-53
2022/10/29 11:50:02;;;;;;;6.10;2.15;;;;;;;;;;5072203;28;20055;-53
2022/10/29 11:52:31;;;;;;;3.10;1.80;;;;;;;;;;5076791;28;20500;-50
2022/10/29 11:54:57;;;;;;;;;;;;;;;;;;5073039;28;20495;-51
2022/10/29 11:57:23;;;;;;;;;;;;;;;;;;5071439;28;19943;-52
2022/10/29 11:59:49;;;;;;;;;;;;;;;;;;5070261;28;19926;-52
2022/10/29 12:02:14;;;;;;;;;;;;;;;;;;5084292;28;20019;-53
2022/10/29 12:04:40;;;;;;;;;;;;;;;;;;5086314;28;19908;-49
2022/10/29 12:07:06;;;;;;;;;;;;;;;;;;5078963;28;19911;-52
2022/10/29 12:09:32;;;;;;;;;;;;;;;;;;5079525;28;19991;-51
2022/10/29 12:11:58;;;;;;;;;;;;;;;;;;5077153;28;19956;-52
2022/10/29 12:14:25;;;;;;;;;;;;;;;;;;5069579;28;19923;-52
2022/10/29 12:16:51;;;;;;;;;;;;;;;;;;5069278;28;19951;-50
2022/10/29 12:19:16;;;;;;;;;;;;;;;;;;5069493;28;19944;-51
2022/10/29 12:21:42;;;;;;;;;;;;;;;;;;5068733;28;19931;-50
2022/10/29 12:24:08;;;;;;;;;;;;;;;;;;5070631;28;19912;-52
2022/10/29 12:26:34;;;;;;;;;;;;;;;;;;5086635;28;19961;-54
2022/10/29 12:29:00;;;;;;;;;;;;;;;;;;5069551;28;19912;-53
2022/10/29 12:31:26;;;;;;;;;;;;;;;;;;5070196;28;19912;-53
2022/10/29 12:33:52;;;;;;;;;;;;;;;;;;5069079;28;19912;-50
2022/10/29 12:36:18;;;;;;;;;;;;;;;;;;5051023;28;19908;-53
2022/10/29 12:38:44;;;;;;;;;;;;;;;;;;5068958;28;19943;-51
2022/10/29 12:41:10;;;;;;;;;;;;;;;;;;5084257;28;19912;-52
2022/10/29 12:43:36;;;;;;;;;;;;;;;;;;5073725;28;19930;-53
2022/10/29 12:46:02;;;;;;;;;;;;;;;;;;5068402;28;20421;-52
2022/10/29 12:48:28;;;;;;;;;;;;;;;;;;5067955;28;19908;-55
2022/10/29 12:50:54;;;;;;;;;;;;;;;;;;5075124;28;19955;-53
2022/10/29 12:53:20;;;;;;;;;;;;;;;;;;5087821;28;19943;-53
2022/10/29 12:55:46;;;;;;;;;;;;;;;;;;5084104;28;19939;-52
2022/10/29 12:58:12;;;;;;;;;;;;;;;;;;5083694;28;19908;-52
2022/10/29 13:00:38;;;;;;;;;;;;;;;;;;5088348;28;20438;-52
2022/10/29 13:03:04;;;;;;;;;;;;;;;;;;5107903;28;19950;-53
2022/10/29 13:05:30;;;;;;;;;;;;;;;;;;5079517;28;19916;-52
2022/10/29 13:07:55;;;;;;;;;;;;;;;;;;5096654;28;19903;-52
2022/10/29 13:10:25;;;;;;;;;;;;;;;;;;5108016;28;19927;-53
2022/10/29 13:12:51;;;;;;;;;;;;;;;;;;5091507;28;19910;-53
2022/10/29 13:15:19;;;;;;;;;;;;;;;;;;5087262;28;19912;-53
2022/10/29 13:17:45;;;;;;;;;;;;;;;;;;5086689;28;19908;-52
2022/10/29 13:20:11;;;;;;;;;;;;;;;;;;5087464;28;19904;-53
2022/10/29 13:22:37;;;;;;;;;;;;;;;;;;5087157;28;19999;-53
2022/10/29 13:25:03;;;;;;;;;;;;;;;;;;5087558;28;19904;-52
2022/10/29 13:27:29;;;;;;;;;;;;;;;;;;5087956;28;19908;-51
2022/10/29 13:29:54;;;;;;;;;;;;;;;;;;5087195;28;19930;-52
2022/10/29 13:32:20;;;;;;;;;;;;;;;;;;5087449;28;19950;-53
2022/10/29 13:34:46;;;;;;;;;;;;;;;;;;5087341;28;19908;-52
2022/10/29 13:37:12;;;;;;;;;;;;;;;;;;5086892;28;19927;-50
2022/10/29 13:39:38;;;;;;;;;;;;;;;;;;5087194;28;19907;-50
2022/10/29 13:42:04;;;;;;;;;;;;;;;;;;5086323;28;19904;-52
2022/10/29 13:44:30;;;;;;;;;;;;;;;;;;5087446;28;19969;-53
2022/10/29 13:46:56;;;;;;;;;;;;;;;;;;5086763;28;19912;-53
2022/10/29 13:49:22;;;;;;;;;;;;;;;;;;5087203;28;19999;-52
2022/10/29 13:51:48;;;;;;;;;;;;;;;;;;5079750;28;19927;-54
2022/10/29 13:54:14;;;;;;;;;;;;;;;;;;5087114;28;20470;-50
2022/10/29 13:56:40;;;;;;;;;;;;;;;;;;5086827;28;19904;-51
2022/10/29 13:59:06;;;;;;;;;;;;;;;;;;5087087;28;19904;-49
2022/10/29 14:01:32;;;;;;;;;;;;;;;;;;5087238;28;19930;-51
2022/10/29 14:03:58;;;;;;;;;;;;;;;;;;5083028;28;19908;-51
2022/10/29 14:06:25;;;;;;;;;;;;;;;;;;5066430;28;20028;-51
2022/10/29 14:08:50;;;;;;;;;;;;;;;;;;5066779;28;20502;-49
2022/10/29 14:11:16;;;;;;;;;;;;;;;;;;5067010;28;19905;-50
2022/10/29 14:13:42;;;;;;;;;;;;;;;;;;5065377;28;19916;-50
2022/10/29 14:16:08;;;;;;;;;;;;;;;;;;5064863;28;19911;-50
2022/10/29 14:18:34;;;;;;;;;;;;;;;;;;5065389;28;20090;-48
2022/10/29 14:21:00;;;;;;;;;;;;;;;;;;5065521;28;19935;-51
2022/10/29 14:23:26;;;;;;;;;;;;;;;;;;5065294;28;19904;-51
2022/10/29 14:25:52;;;;;;;;;;;;;;;;;;5065121;28;19904;-48
2022/10/29 14:28:18;;;;;;;;;;;;;;;;;;5068606;28;19904;-50
2022/10/29 14:30:44;;;;;;;;;;;;;;;;;;5068650;28;19904;-51
2022/10/29 14:33:09;;;;;;;;;;;;;;;;;;5068849;28;19919;-48
2022/10/29 14:35:35;;;;;;;;;;;;;;;;;;5068241;28;19908;-51
2022/10/29 14:38:01;;;;;;;;;;;;;;;;;;5069287;28;20306;-50
2022/10/29 14:40:27;;;;;;;;;;;;;;;;;;5068703;28;19954;-49
2022/10/29 14:42:53;;;;;;;;;;;;;;;;;;5068560;28;20361;-48
2022/10/29 14:45:19;;;;;;;;;;;;;;;;;;5068323;28;19912;-50
2022/10/29 14:47:45;;;;;;;;;;;;;;;;;;5068419;28;19940;-48
2022/10/29 14:50:11;;;;;;;;;;;;;;;;;;5068272;28;19995;-49
2022/10/29 14:52:37;;;;;;;;;;;;;;;;;;5068475;28;19904;-51
2022/10/29 14:55:02;;;;;;;;;;;;;;;;;;5068773;28;19909;-50
2022/10/29 14:57:28;;;;;;;;;;;;;;;;;;5068769;28;19927;-49
2022/10/29 14:59:54;;;;;;;;;;;;;;;;;;5068408;28;19940;-49
2022/10/29 15:02:20;;;;;;;;;;;;;;;;;;5068281;28;19913;-50
2022/10/29 15:04:46;;;;;;;;;;;;;;;;;;5067811;28;19958;-51
2022/10/29 15:07:12;;;;;;;;;;;;;;;;;;5068318;28;19905;-51
2022/10/29 15:09:38;;;;;;;;;;;;;;;;;;5068085;28;19957;-51
2022/10/29 15:12:04;;;;;;;;;;;;;;;;;;5068249;28;19908;-51
2022/10/29 15:14:31;;;;;;;;;;;;;;;;;;5070284;28;20276;-50
2022/10/29 15:16:57;;;;;;;;;;;;;;;;;;5085415;28;19908;-51
2022/10/29 15:19:23;;;;;;;;;;;;;;;;;;5088647;28;19908;-50
2022/10/29 15:21:49;;;;;;;;;;;;;;;;;;5088368;28;19912;-48
2022/10/29 15:24:16;;;;;;;;;;;;;;;;;;5089328;28;19904;-50
2022/10/29 15:26:42;;;;;;;;;;;;;;;;;;5089640;28;20038;-50
2022/10/29 15:29:08;;;;;;;;;;;;;;;;;;5088882;28;19994;-51
2022/10/29 15:31:34;;;;;;;;;;;;;;;;;;5089328;28;19915;-49
2022/10/29 15:34:00;;;;;;;;;;;;;;;;;;5089714;28;19916;-47
2022/10/29 15:36:26;;;;;;;;;;;;;;;;;;5088935;28;19904;-49
2022/10/29 15:38:52;;;;;;;;;;;;;;;;;;5088702;28;19984;-49
2022/10/29 15:41:18;;;;;;;;;;;;;;;;;;5088910;28;19912;-51
2022/10/29 15:43:44;;;;;;;;;;;;;;;;;;5087971;28;19943;-52
2022/10/29 15:46:14;;;;;;;;;;;;;;;;;;5087060;28;20382;-50
2022/10/29 15:48:40;;;;;;;;;;;;;;;;;;5106916;28;20453;-49
2022/10/29 15:51:06;;;;;;;;;;;;;;;;;;5091192;28;19990;-52
2022/10/29 15:53:32;;;;;;;;;;;;;;;;;;5087985;28;19908;-52
2022/10/29 15:55:59;;;;;;;;;;;;;;;;;;5083258;28;19919;-52
2022/10/29 15:58:25;;;;;;;;;;;;;;;;;;5075642;28;19908;-51
2022/10/29 16:00:51;;;;;;;;;;;;;;;;;;5083177;28;19908;-51
2022/10/29 16:03:17;;;;;;;;;;;;;;;;;;5071071;28;20027;-50
2022/10/29 16:05:43;;;;;;;;;;;;;;;;;;5075220;28;19909;-50
2022/10/29 16:08:09;;;;;;;;;;;;;;;;;;5065628;28;19977;-52
2022/10/29 16:10:35;;;;;;;;;;;;;;;;;;5064611;28;19959;-51
2022/10/29 16:13:01;;;;;;;;;;;;;;;;;;5065011;28;19913;-52
2022/10/29 16:15:26;;;;;;;;;;;;;;;;;;5064006;28;19989;-52
2022/10/29 16:17:52;;;;;;;;;;;;;;;;;;5071887;28;19923;-52
2022/10/29 16:20:19;;;;;;;3.47;1.27;;;;;;;;;;5079802;28;19912;-52
2022/10/29 16:22:47;;;;;;;1.30;1.10;;;;;;;;;;5082962;28;20020;-50
2022/10/29 16:25:25;;;;;;;2.08;1.10;;;;;;;;;;5100443;28;20107;-51
2022/10/29 16:27:51;;;;;;;1.67;1.17;;;;;;;;;;5089333;28;20427;-52
2022/10/29 16:30:17;;;;;;;;;;;;;;;;;;5073811;28;20039;-52
2022/10/29 16:32:44;;;;;;;;;;;;;;;;;;5072312;28;19908;-50
2022/10/29 16:35:11;;;;;;;;;;;;;;;;;;5084146;28;19924;-50
2022/10/29 16:37:38;;;;;;;;;;;;;;;;;;5076457;28;20398;-53
2022/10/29 16:40:04;;;;;;;;;;;;;;;;;;5099224;28;20312;-53
2022/10/29 16:42:30;;;;;;;;;;;;;;;;;;5077152;28;19992;-51
2022/10/29 16:44:57;;;;;;;1.90;1.50;;;;;;;;;;5070566;28;20457;-50
2022/10/29 16:47:23;;;;;;;3.08;1.80;;;;;;;;;;5075216;28;20542;-51
2022/10/29 16:49:49;;;;;;;2.60;1.27;;;;;;;;;;5085258;28;20415;-52
2022/10/29 16:52:15;;;;;;;2.00;1.45;;;;;;;;;;5084621;28;20033;-49
2022/10/29 16:54:42;;;;;;;2.72;1.75;;;;;;;;;;5065668;28;20056;-52
2022/10/29 16:57:08;;;;;;;2.13;1.40;;;;;;;;;;5084357;28;20032;-51
2022/10/29 16:59:35;;;;;;;3.00;1.50;;;;;;;;;;5079266;28;20024;-53
2022/10/29 17:02:01;;;;;;;1.65;1.35;;;;;;;;;;5074576;28;20575;-52
2022/10/29 17:04:27;;;;;;;2.42;1.33;;;;;;;;;;5065902;28;20103;-52
2022/10/29 17:06:53;;;;;;;2.85;1.58;;;;;;;;;;5073905;28;20033;-49
2022/10/29 17:09:19;;;;;;;1.60;1.30;;;;;;;;;;5083428;28;20120;-50
2022/10/29 17:11:45;;;;;;;1.95;1.30;;;;;;;;;;5072738;28;20020;-49
2022/10/29 17:14:11;;;;;;;2.70;1.20;;;;;;;;;;5080949;28;20530;-52
2022/10/29 17:16:37;;;;;;;2.50;1.60;;;;;;;;;;5076414;28;20020;-52
2022/10/29 17:19:03;;;;;;;4.82;1.52;;;;;;;;;;5090245;28;20519;-49
2022/10/29 17:21:30;;;;;;;3.08;1.40;;;;;;;;;;5084764;28;20103;-50
2022/10/29 17:23:56;;;;;;;2.65;1.20;;;;;;;;;;5060443;28;20020;-50
2022/10/29 17:26:22;;;;;;;1.20;1.10;;;;;;;;;;5047367;28;20085;-52
2022/10/29 17:28:48;;;;;;;2.50;1.27;;;;;;;;;;5083953;28;20056;-52
2022/10/29 17:31:15;;;;;;;;;;;;;;;;;;5084638;28;20055;-51
2022/10/29 17:33:41;;;;;;;;;;;;;;;;;;5079708;28;20023;-53
2022/10/29 17:36:07;;;;;;;;;;;;;;;;;;5070112;28;20007;-52
2022/10/29 17:38:33;;;;;;;;;;;;;;;;;;5066730;28;19959;-53
2022/10/29 17:41:00;;;;;;;;;;;;;;;;;;5072992;28;19939;-51
2022/10/29 17:43:27;;;;;;;;;;;;;;;;;;5072260;28;19933;-51
2022/10/29 17:45:52;;;;;;;;;;;;;;;;;;5078772;28;20473;-53
2022/10/29 17:48:19;;;;;;;;;;;;;;;;;;5073544;28;19908;-53
2022/10/29 17:50:45;;;;;;;;;;;;;;;;;;5074941;28;19908;-51
2022/10/29 17:53:11;;;;;;;;;;;;;;;;;;5072338;28;20330;-53
2022/10/29 17:55:38;;;;;;;;;;;;;;;;;;5073946;28;19908;-52
2022/10/29 17:58:04;;;;;;;;;;;;;;;;;;5079607;28;20401;-53
2022/10/29 18:00:31;;;;;;;3.17;1.80;;;;;;;;;;5094431;28;20413;-53
2022/10/29 18:02:57;;;;;;;2.30;1.55;;;;;;;;;;5081767;28;20032;-52
2022/10/29 18:05:23;;;;;;;1.70;1.40;;;;;;;;;;5085599;28;20027;-49
2022/10/29 18:07:49;;;;;;;1.60;1.35;;;;;;;;;;5092769;28;20027;-52
2022/10/29 18:10:16;;;;;;;2.63;1.88;;;;;;;;;;5080890;28;20469;-54
2022/10/29 18:12:42;;;;;;;2.28;1.50;;;;;;;;;;5056569;28;20036;-52
2022/10/29 18:15:08;;;;;;;2.83;1.70;;;;;;;;;;5072073;28;20046;-52
2022/10/29 18:17:35;;;;;;;1.92;1.55;;;;;;;;;;5079986;28;20455;-52
2022/10/29 18:20:01;;;;;;;3.55;2.10;;;;;;;;;;5072583;28;20024;-52
2022/10/29 18:22:27;;;;;;;5.28;2.25;;;;;;;;;;5054719;28;20051;-49
2022/10/29 18:24:53;;;;;;;3.10;2.10;;;;;;;;;;5072635;28;20459;-53
2022/10/29 18:27:19;;;;;;;3.90;2.30;;;;;;;;;;5074645;28;20121;-53
2022/10/29 18:29:46;;;;;;;2.60;1.80;;;;;;;;;;5073451;28;20430;-51
2022/10/29 18:32:12;;;;;;;2.90;2.00;;;;;;;;;;5080500;28;20024;-54
2022/10/29 18:34:38;;;;;;;4.68;2.20;;;;;;;;;;5074756;28;20043;-51
2022/10/29 18:37:05;;;;;;;2.55;1.73;;;;;;;;;;5075639;28;20499;-52
2022/10/29 18:39:32;;;;;;;2.55;1.70;;;;;;;;;;5067697;28;20024;-50
2022/10/29 18:41:58;;;;;;;;;;;;;;;;;;5074701;28;20028;-52
2022/10/29 18:44:24;;;;;;;;;;;;;;;;;;5086142;28;19912;-53
2022/10/29 18:46:50;;;;;;;;;;;;;;;;;;5081805;28;20786;-53
2022/10/29 18:49:16;;;;;;;;;;;;;;;;;;5081589;28;19919;-52
2022/10/29 18:51:42;;;;;;;;;;;;;;;;;;5079951;28;20362;-53
2022/10/29 18:54:08;;;;;;;;;;;;;;;;;;5078005;28;19944;-51
2022/10/29 18:56:34;;;;;;;;;;;;;;;;;;5082797;28;19908;-52
2022/10/29 18:59:00;;;;;;;;;;;;;;;;;;5082323;28;19995;-52
2022/10/29 19:01:26;;;;;;;;;;;;;;;;;;5073684;28;19962;-51
2022/10/29 19:03:52;;;;;;;;;;;;;;;;;;5088122;28;19926;-53
2022/10/29 19:06:18;;;;;;;;;;;;;;;;;;5092062;28;20481;-52
2022/10/29 19:08:44;;;;;;;;;;;;;;;;;;5071359;28;19962;-53
2022/10/29 19:11:10;;;;;;;;;;;;;;;;;;5076714;28;19912;-51
2022/10/29 19:13:36;;;;;;;;;;;;;;;;;;5085295;28;19960;-53
2022/10/29 19:16:02;;;;;;;;;;;;;;;;;;5069961;28;19931;-53
2022/10/29 19:18:28;;;;;;;;;;;;;;;;;;5088692;28;19915;-54
2022/10/29 19:20:53;;;;;;;;;;;;;;;;;;5077199;28;20291;-53
2022/10/29 19:23:19;;;;;;;;;;;;;;;;;;5077985;28;19916;-51
2022/10/29 19:25:45;;;;;;;;;;;;;;;;;;5067208;28;19909;-50
2022/10/29 19:28:11;;;;;;;;;;;;;;;;;;5066739;28;19927;-53
2022/10/29 19:30:37;;;;;;;;;;;;;;;;;;5069241;28;20364;-51
2022/10/29 19:33:03;;;;;;;;;;;;;;;;;;5084408;28;19943;-52
2022/10/29 19:35:29;;;;;;;;;;;;;;;;;;5083700;28;20008;-53
2022/10/29 19:37:55;;;;;;;;;;;;;;;;;;5066329;28;19908;-49
2022/10/29 19:40:21;;;;;;;;;;;;;;;;;;5066425;28;19912;-53
2022/10/29 19:42:47;;;;;;;;;;;;;;;;;;5066176;28;20311;-50
2022/10/29 19:45:13;;;;;;;;;;;;;;;;;;5065994;28;19915;-53
2022/10/29 19:47:39;;;;;;;;;;;;;;;;;;5065880;28;19905;-49
2022/10/29 19:50:07;;;;;;;;;;;;;;;;;;5066535;28;20045;-50
2022/10/29 19:52:33;;;;;;;;;;;;;;;;;;5066842;28;20302;-52
2022/10/29 19:54:59;;;;;;;;;;;;;;;;;;5066316;28;20009;-49
2022/10/29 19:57:25;;;;;;;;;;;;;;;;;;5065973;28;19963;-51
2022/10/29 19:59:51;;;;;;;;;;;;;;;;;;5065634;28;20436;-53
2022/10/29 20:02:17;;;;;;;;;;;;;;;;;;5066169;28;19991;-51
2022/10/29 20:04:43;;;;;;;;;;;;;;;;;;5065322;28;19908;-53
2022/10/29 20:07:09;;;;;;;;;;;;;;;;;;5065796;28;19911;-52
2022/10/29 20:09:35;;;;;;;;;;;;;;;;;;5065643;28;19911;-52
2022/10/29 20:12:01;;;;;;;;;;;;;;;;;;5066242;28;19908;-52
2022/10/29 20:14:27;;;;;;;;;;;;;;;;;;5047346;28;19920;-49
2022/10/29 20:16:52;;;;;;;;;;;;;;;;;;5065254;28;19983;-54
2022/10/29 20:19:19;;;;;;;;;;;;;;;;;;5074484;28;20036;-49
2022/10/29 20:21:46;;;;;;;;;;;;;;;;;;5085690;28;19904;-53
2022/10/29 20:24:12;;;;;;;;;;;;;;;;;;5084879;28;19919;-52
2022/10/29 20:26:38;;;;;;;;;;;;;;;;;;5085300;28;19908;-53
2022/10/29 20:29:04;;;;;;;;;;;;;;;;;;5085353;28;20478;-52
2022/10/29 20:31:31;;;;;;;;;;;;;;;;;;5086326;28;19908;-52
2022/10/29 20:33:57;;;;;;;;;;;;;;;;;;5057913;28;19955;-50
2022/10/29 20:36:23;;;;;;;;;;;;;;;;;;5046622;28;19974;-53
2022/10/29 20:38:50;;;;;;;;;;;;;;;;;;5086495;28;20135;-52
2022/10/29 20:41:16;;;;;;;;;;;;;;;;;;5085422;28;20395;-54
2022/10/29 20:43:42;;;;;;;;;;;;;;;;;;5085062;28;19930;-58
2022/10/29 20:46:08;;;;;;;;;;;;;;;;;;5084995;28;19911;-58
2022/10/29 20:48:35;;;;;;;;;;;;;;;;;;5085230;28;20391;-54
2022/10/29 20:51:00;;;;;;;;;;;;;;;;;;5073956;28;19916;-53
2022/10/29 20:53:26;;;;;;;;;;;;;;;;;;5064802;28;19991;-52
2022/10/29 20:55:53;;;;;;;;;;;;;;;;;;5064566;28;19911;-54
2022/10/29 20:58:19;;;;;;;;;;;;;;;;;;5064896;28;19909;-53